Time;durP1;ratioP1;P1;durP2;ratioP2;P2;SDS_P1;SDS_P2;PMS_P1;PMS_P2;Temp;Humidity;BMP_temperature;BMP_pressure;BME280_temperature;BME280_humidity;BME280_pressure;Samples;Min_cycle;Max_cycle;Signal;HPM_P1;HPM_P2
2022/03/10 00:02:10;;;;;;;18.85;9.77;;;2.00;99.90;;;;;;5082383;28;20101;-82
2022/03/10 00:04:37;;;;;;;17.15;10.18;;;3.30;99.90;;;;;;5061833;28;20036;-83
2022/03/10 00:07:03;;;;;;;17.65;10.02;;;2.00;99.90;;;;;;5061447;28;20079;-83
2022/03/10 00:09:33;;;;;;;17.77;10.05;;;2.00;99.90;;;;;;5064800;28;20085;-83
2022/03/10 00:12:02;;;;;;;16.90;9.68;;;1.90;99.90;;;;;;5081450;28;20082;-82
2022/03/10 00:14:28;;;;;;;17.10;9.70;;;1.90;99.90;;;;;;5081965;28;20036;-82
2022/03/10 00:16:55;;;;;;;17.25;9.95;;;1.90;99.90;;;;;;5062775;28;20068;-84
2022/03/10 00:19:21;;;;;;;17.27;10.30;;;1.90;99.90;;;;;;5079521;28;20068;-82
2022/03/10 00:21:48;;;;;;;17.17;10.07;;;1.90;99.90;;;;;;5079818;28;20480;-85
2022/03/10 00:24:14;;;;;;;17.33;10.05;;;1.80;99.90;;;;;;5059391;28;20037;-83
2022/03/10 00:26:43;;;;;;;18.38;10.18;;;1.80;99.90;;;;;;5063312;28;20039;-83
2022/03/10 00:29:09;;;;;;;18.08;9.65;;;2.20;99.90;;;;;;5075019;28;20059;-83
2022/03/10 00:31:36;;;;;;;19.23;10.10;;;1.80;99.90;;;;;;5062106;28;20171;-83
2022/03/10 00:34:02;;;;;;;16.40;10.00;;;3.50;99.90;;;;;;5081098;28;20040;-83
2022/03/10 00:36:28;;;;;;;18.73;10.30;;;1.70;99.90;;;;;;5078314;28;20044;-83
2022/03/10 00:38:54;;;;;;;17.67;10.27;;;1.80;99.90;;;;;;5080888;28;20389;-83
2022/03/10 00:41:21;;;;;;;18.27;10.30;;;1.70;99.90;;;;;;5079792;28;20036;-83
2022/03/10 00:43:47;;;;;;;19.70;10.70;;;2.90;99.90;;;;;;5076477;28;20459;-83
2022/03/10 00:46:13;;;;;;;18.58;10.70;;;1.70;99.90;;;;;;5061732;28;20036;-84
2022/03/10 00:48:39;;;;;;;17.85;10.35;;;3.30;99.90;;;;;;5060098;28;20477;-81
2022/03/10 00:51:06;;;;;;;17.42;10.13;;;3.00;99.90;;;;;;5079034;28;20039;-82
2022/03/10 00:53:32;;;;;;;17.58;10.40;;;2.10;99.90;;;;;;5082126;28;20040;-82
2022/03/10 00:55:58;;;;;;;18.90;11.00;;;1.50;99.90;;;;;;5079633;28;20583;-82
2022/03/10 00:58:24;;;;;;;16.67;9.90;;;2.90;99.90;;;;;;5080068;28;20092;-83
2022/03/10 01:00:51;;;;;;;19.80;10.70;;;2.10;99.90;;;;;;5083238;28;20412;-82
2022/03/10 01:03:17;;;;;;;18.00;10.10;;;1.40;99.90;;;;;;5066936;28;20044;-82
2022/03/10 01:05:42;;;;;;;18.90;10.15;;;1.40;99.90;;;;;;5080176;28;20044;-82
2022/03/10 01:08:08;;;;;;;17.95;10.00;;;1.40;99.90;;;;;;5060048;28;20100;-82
2022/03/10 01:10:34;;;;;;;18.42;10.23;;;1.30;99.90;;;;;;5041724;28;20079;-82
2022/03/10 01:13:00;;;;;;;20.35;10.65;;;1.40;99.90;;;;;;5063004;28;20119;-83
2022/03/10 01:15:27;;;;;;;18.00;10.20;;;1.30;99.90;;;;;;5080601;28;20040;-82
2022/03/10 01:17:53;;;;;;;18.02;10.15;;;1.30;99.90;;;;;;5080833;28;20119;-82
2022/03/10 01:20:24;;;;;;;17.13;9.55;;;2.50;99.90;;;;;;5064586;28;20063;-82
2022/03/10 01:22:50;;;;;;;18.55;10.23;;;1.30;99.90;;;;;;5080224;28;20473;-82
2022/03/10 01:25:18;;;;;;;17.52;9.90;;;1.20;99.90;;;;;;5082048;28;20516;-82
2022/03/10 01:27:45;;;;;;;18.33;9.73;;;1.20;99.90;;;;;;5079649;28;20028;-82
2022/03/10 01:30:12;;;;;;;17.30;9.98;;;1.20;99.90;;;;;;5065021;28;20052;-82
2022/03/10 01:32:38;;;;;;;19.20;11.05;;;1.10;99.90;;;;;;5079101;28;20788;-82
2022/03/10 01:35:05;;;;;;;17.73;10.90;;;1.20;99.90;;;;;;5065230;28;20157;-82
2022/03/10 01:37:32;;;;;;;17.05;10.38;;;2.10;99.90;;;;;;5083618;28;20039;-82
2022/03/10 01:39:58;;;;;;;17.15;9.73;;;1.50;99.90;;;;;;5068394;28;20043;-82
2022/03/10 01:42:24;;;;;;;18.10;10.07;;;1.10;99.90;;;;;;5052289;28;20396;-82
2022/03/10 01:44:54;;;;;;;18.75;10.20;;;2.30;99.90;;;;;;5062313;28;20258;-82
2022/03/10 01:47:20;;;;;;;18.20;10.63;;;1.10;99.90;;;;;;5080802;28;20032;-82
2022/03/10 01:49:46;;;;;;;20.10;9.90;;;1.10;99.90;;;;;;5077427;28;20051;-83
2022/03/10 01:52:12;;;;;;;17.58;10.52;;;1.20;99.90;;;;;;5082933;28;20040;-82
2022/03/10 01:54:40;;;;;;;18.30;10.65;;;1.00;99.90;;;;;;5083006;28;20059;-83
2022/03/10 01:57:06;;;;;;;18.00;10.13;;;1.00;99.90;;;;;;5081669;28;20054;-82
2022/03/10 01:59:32;;;;;;;18.38;10.30;;;1.00;99.90;;;;;;5079844;28;20032;-82
2022/03/10 02:01:58;;;;;;;16.92;10.27;;;1.00;99.90;;;;;;5099183;28;20123;-82
2022/03/10 02:04:24;;;;;;;19.17;10.00;;;1.00;99.90;;;;;;5066013;28;20576;-82
2022/03/10 02:06:51;;;;;;;19.30;10.57;;;1.00;99.90;;;;;;5064890;28;20032;-82
2022/03/10 02:12:01;;;;;;;18.63;10.48;;;0.90;99.90;;;;;;5068633;28;20047;-83
2022/03/10 02:17:20;;;;;;;17.15;10.27;;;0.90;99.90;;;;;;5103778;27;20078;-82
2022/03/10 02:19:49;;;;;;;17.52;9.70;;;2.30;99.90;;;;;;5066818;28;20076;-82
2022/03/10 02:22:15;;;;;;;16.35;9.48;;;0.80;99.90;;;;;;5083966;28;20068;-82
2022/03/10 02:24:43;;;;;;;18.85;10.45;;;0.80;99.90;;;;;;5046279;28;20075;-82
2022/03/10 02:27:22;;;;;;;18.52;10.57;;;0.80;99.90;;;;;;5066316;28;20040;-82
2022/03/10 02:29:57;;;;;;;19.23;10.02;;;0.80;99.90;;;;;;5078042;28;20139;-82
2022/03/10 02:32:23;;;;;;;18.00;9.90;;;2.60;99.90;;;;;;5080652;28;20148;-83
2022/03/10 02:34:49;;;;;;;18.55;10.98;;;0.80;99.90;;;;;;5081481;28;20039;-82
2022/03/10 02:37:16;;;;;;;17.45;10.63;;;0.80;99.90;;;;;;5061742;28;20058;-82
2022/03/10 02:39:43;;;;;;;18.77;10.65;;;0.80;99.90;;;;;;5063539;28;20093;-82
2022/03/10 02:42:10;;;;;;;19.88;10.90;;;0.70;99.90;;;;;;5085568;28;20036;-82
2022/03/10 02:44:47;;;;;;;18.20;10.23;;;1.10;99.90;;;;;;5080531;28;20105;-82
2022/03/10 02:47:13;;;;;;;18.17;10.10;;;0.70;99.90;;;;;;5076102;28;20047;-82
2022/03/10 02:49:40;;;;;;;18.83;10.57;;;0.70;99.90;;;;;;5062763;28;20093;-82
2022/03/10 02:52:07;;;;;;;18.17;10.20;;;2.30;99.90;;;;;;5079985;28;20031;-82
2022/03/10 02:54:33;;;;;;;17.40;9.75;;;;;;;;;;5079661;28;20044;-83
2022/03/10 02:56:59;;;;;;;18.55;10.52;;;0.70;99.90;;;;;;5067706;28;20047;-82
2022/03/10 02:59:25;;;;;;;17.33;10.40;;;0.70;99.90;;;;;;5081892;28;20101;-82
2022/03/10 03:01:51;;;;;;;16.90;9.85;;;0.70;99.90;;;;;;5080684;28;20090;-83
2022/03/10 03:04:17;;;;;;;22.27;11.05;;;0.60;99.90;;;;;;5063410;28;20618;-82
2022/03/10 03:06:43;;;;;;;21.27;10.70;;;2.60;99.90;;;;;;5066676;28;20496;-82
2022/03/10 03:09:09;;;;;;;19.63;10.80;;;2.30;99.90;;;;;;5063456;28;20038;-83
2022/03/10 03:11:35;;;;;;;17.58;9.65;;;0.60;99.90;;;;;;5079529;28;20075;-83
2022/03/10 03:14:01;;;;;;;18.60;10.20;;;1.70;99.90;;;;;;5080183;28;20063;-82
2022/03/10 03:16:28;;;;;;;19.88;10.70;;;0.60;99.90;;;;;;5065369;28;20517;-82
2022/03/10 03:18:54;;;;;;;18.10;10.18;;;0.60;99.90;;;;;;5064223;28;20485;-82
2022/03/10 03:21:20;;;;;;;18.10;10.65;;;0.60;99.90;;;;;;5062376;28;20075;-82
2022/03/10 03:23:47;;;;;;;17.80;10.15;;;0.60;99.90;;;;;;5079630;28;20493;-82
2022/03/10 03:26:13;;;;;;;19.50;11.10;;;1.80;99.90;;;;;;5065700;28;20032;-82
2022/03/10 03:28:38;;;;;;;18.42;10.32;;;0.60;99.90;;;;;;5063910;28;20510;-83
2022/03/10 03:31:04;;;;;;;19.15;11.07;;;0.60;99.90;;;;;;5065195;28;20105;-83
2022/03/10 03:33:31;;;;;;;19.90;10.90;;;1.80;99.90;;;;;;5067367;28;20066;-82
2022/03/10 03:35:57;;;;;;;19.02;10.88;;;0.50;99.90;;;;;;5081539;28;20051;-82
2022/03/10 03:38:23;;;;;;;19.23;10.32;;;0.50;99.90;;;;;;5081678;28;20191;-82
2022/03/10 03:40:49;;;;;;;19.58;10.82;;;0.50;99.90;;;;;;5062842;28;20562;-82
2022/03/10 03:43:15;;;;;;;19.42;10.80;;;0.40;99.90;;;;;;5064190;28;20115;-83
2022/03/10 03:45:41;;;;;;;17.90;10.15;;;0.40;99.90;;;;;;5079455;28;20032;-82
2022/03/10 03:48:07;;;;;;;18.38;10.18;;;0.40;99.90;;;;;;5063033;28;20039;-83
2022/03/10 03:50:32;;;;;;;17.77;10.05;;;0.40;99.90;;;;;;5082199;28;20044;-82
2022/03/10 03:52:58;;;;;;;19.35;11.30;;;0.40;99.90;;;;;;5079962;28;20036;-82
2022/03/10 03:55:24;;;;;;;17.50;10.30;;;0.40;99.90;;;;;;5064308;28;20039;-82
2022/03/10 03:57:50;;;;;;;19.10;11.30;;;0.40;99.90;;;;;;5044151;28;20489;-83
2022/03/10 04:00:16;;;;;;;19.27;10.80;;;0.40;99.90;;;;;;5065749;28;20129;-82
2022/03/10 04:02:42;;;;;;;20.02;10.95;;;0.40;99.90;;;;;;5061637;28;20504;-82
2022/03/10 04:05:08;;;;;;;19.55;11.15;;;0.30;99.90;;;;;;5079771;28;20039;-82
2022/03/10 04:07:35;;;;;;;18.80;11.02;;;0.40;99.90;;;;;;5064496;28;20040;-83
2022/03/10 04:10:01;;;;;;;18.45;10.98;;;0.40;99.90;;;;;;5064027;28;20595;-83
2022/03/10 04:12:27;;;;;;;19.42;10.75;;;0.30;99.90;;;;;;5075024;28;20064;-82
2022/03/10 04:14:52;;;;;;;18.05;10.75;;;1.50;99.90;;;;;;5065191;28;20082;-82
2022/03/10 04:17:18;;;;;;;18.60;10.77;;;0.30;99.90;;;;;;5050784;28;20051;-82
2022/03/10 04:19:44;;;;;;;19.17;11.23;;;0.30;99.90;;;;;;5067750;28;20124;-82
2022/03/10 04:22:10;;;;;;;19.73;11.07;;;1.30;99.90;;;;;;5080995;28;20044;-82
2022/03/10 04:24:35;;;;;;;18.88;11.10;;;0.30;99.90;;;;;;5049424;28;20520;-82
2022/03/10 04:27:02;;;;;;;18.70;11.27;;;;;;;;;;5062117;28;20498;-82
2022/03/10 04:29:27;;;;;;;20.60;10.68;;;0.30;99.90;;;;;;5094063;28;20058;-83
2022/03/10 04:31:53;;;;;;;18.88;10.88;;;0.20;99.90;;;;;;5063877;28;20122;-82
2022/03/10 04:34:19;;;;;;;20.75;11.48;;;0.20;99.90;;;;;;5063372;28;20423;-82
2022/03/10 04:36:45;;;;;;;20.40;11.30;;;0.20;99.90;;;;;;5063046;28;20040;-82
2022/03/10 04:39:11;;;;;;;19.42;11.07;;;;;;;;;;5060173;28;20119;-83
2022/03/10 04:41:37;;;;;;;18.40;11.00;;;0.10;99.90;;;;;;5078708;28;20042;-82
2022/03/10 04:44:03;;;;;;;20.40;11.23;;;0.10;99.90;;;;;;5079747;28;20043;-82
2022/03/10 04:46:29;;;;;;;20.75;10.80;;;0.10;99.90;;;;;;5078371;28;20163;-83
2022/03/10 04:48:55;;;;;;;19.02;10.77;;;1.50;99.90;;;;;;5063892;28;20032;-82
2022/03/10 04:51:21;;;;;;;20.23;10.77;;;0.00;99.90;;;;;;5082976;28;20032;-83
2022/03/10 04:53:47;;;;;;;19.17;11.18;;;0.00;99.90;;;;;;5059430;28;20039;-82
2022/03/10 04:56:13;;;;;;;19.15;10.68;;;0.00;99.90;;;;;;5061277;28;20097;-83
2022/03/10 04:58:39;;;;;;;17.90;10.43;;;0.00;99.90;;;;;;5079771;28;20116;-82
2022/03/10 05:01:05;;;;;;;19.58;10.57;;;0.00;99.90;;;;;;5074857;28;20634;-84
2022/03/10 05:03:34;;;;;;;19.85;10.55;;;-0.10;99.90;;;;;;5078974;28;20093;-83
2022/03/10 05:06:00;;;;;;;17.98;10.52;;;-0.20;99.90;;;;;;5064227;28;20036;-83
2022/03/10 05:08:26;;;;;;;18.35;10.55;;;-0.10;99.90;;;;;;5060535;28;20525;-83
2022/03/10 05:10:52;;;;;;;17.50;10.00;;;-0.20;99.90;;;;;;5079816;28;20068;-83
2022/03/10 05:13:17;;;;;;;18.80;10.45;;;-0.20;99.90;;;;;;5082814;28;20071;-83
2022/03/10 05:15:43;;;;;;;17.92;10.15;;;-0.20;99.90;;;;;;5079234;28;20442;-83
2022/03/10 05:18:09;;;;;;;20.95;10.90;;;1.50;99.90;;;;;;5079344;28;20058;-83
2022/03/10 05:20:35;;;;;;;19.65;10.50;;;-0.20;99.90;;;;;;5078205;28;20040;-84
2022/03/10 05:23:03;;;;;;;19.33;10.65;;;1.70;99.90;;;;;;5059410;28;20033;-82
2022/03/10 05:25:38;;;;;;;19.80;11.20;;;-0.30;99.90;;;;;;5063604;28;20107;-84
2022/03/10 05:28:07;;;;;;;20.33;11.85;;;-0.30;99.90;;;;;;5076353;28;20579;-83
2022/03/10 05:30:33;;;;;;;19.35;10.73;;;1.50;99.90;;;;;;5081766;28;20102;-83
2022/03/10 05:32:59;;;;;;;19.10;10.90;;;-0.30;99.90;;;;;;5060658;28;20071;-83
2022/03/10 05:35:29;;;;;;;19.80;10.48;;;-0.30;99.90;;;;;;5078237;28;20072;-83
2022/03/10 05:37:55;;;;;;;18.65;10.65;;;-0.30;99.90;;;;;;5078055;28;20572;-82
2022/03/10 05:40:21;;;;;;;18.55;10.82;;;1.70;99.90;;;;;;5077841;28;20043;-82
2022/03/10 05:42:50;;;;;;;17.83;10.23;;;-0.40;99.90;;;;;;5076148;28;20036;-82
2022/03/10 05:45:22;;;;;;;20.17;9.57;;;-0.10;99.90;;;;;;5095146;28;20032;-82
2022/03/10 05:47:50;;;;;;;19.70;10.77;;;1.40;99.90;;;;;;5081849;28;20358;-82
2022/03/10 05:50:17;;;;;;;20.05;11.32;;;-0.30;99.90;;;;;;5043892;28;20032;-82
2022/03/10 05:52:45;;;;;;;21.17;11.40;;;1.60;99.90;;;;;;5081517;28;20111;-82
2022/03/10 05:55:11;;;;;;;19.42;11.05;;;-0.30;99.90;;;;;;5079866;28;20051;-82
2022/03/10 05:57:37;;;;;;;17.92;10.18;;;-0.30;99.90;;;;;;5080132;28;20098;-82
2022/03/10 06:00:03;;;;;;;18.13;10.45;;;1.50;99.90;;;;;;5077039;28;20044;-82
2022/03/10 06:02:29;;;;;;;20.63;9.90;;;-0.30;99.90;;;;;;5045757;28;20067;-83
2022/03/10 06:04:59;;;;;;;21.58;11.20;;;-0.30;99.90;;;;;;5067552;28;20068;-81
2022/03/10 06:07:25;;;;;;;20.40;11.10;;;-0.20;99.90;;;;;;5082541;28;20040;-82
2022/03/10 06:09:50;;;;;;;21.38;11.60;;;-0.30;99.90;;;;;;5062699;28;20480;-82
2022/03/10 06:12:21;;;;;;;18.95;11.05;;;0.90;99.90;;;;;;5082561;28;20055;-83
2022/03/10 06:14:46;;;;;;;19.08;10.88;;;-0.30;99.90;;;;;;5061773;28;20119;-82
2022/03/10 06:17:12;;;;;;;19.42;10.93;;;-0.20;99.90;;;;;;5065686;28;20123;-83
2022/03/10 06:19:38;;;;;;;20.77;10.80;;;-0.20;99.90;;;;;;5065492;28;20087;-83
2022/03/10 06:22:04;;;;;;;19.52;10.70;;;-0.20;99.90;;;;;;5072586;28;20115;-82
2022/03/10 06:24:29;;;;;;;20.33;10.70;;;-0.10;99.90;;;;;;5081705;28;20033;-83
2022/03/10 06:26:55;;;;;;;19.05;11.15;;;-0.10;99.90;;;;;;5067329;28;20553;-83
2022/03/10 06:29:21;;;;;;;20.13;11.10;;;0.00;99.90;;;;;;5068678;28;20131;-82
2022/03/10 06:31:47;;;;;;;19.70;11.20;;;1.40;99.90;;;;;;5065827;28;20201;-83
2022/03/10 06:34:13;;;;;;;20.52;11.18;;;0.10;99.90;;;;;;5066829;28;20051;-82
2022/03/10 06:36:39;;;;;;;17.98;10.60;;;0.30;99.90;;;;;;5066383;28;20047;-82
2022/03/10 06:39:06;;;;;;;19.63;10.70;;;0.20;99.90;;;;;;5064372;28;20079;-83
2022/03/10 06:41:32;;;;;;;21.48;10.93;;;1.40;99.90;;;;;;5067241;28;20044;-83
2022/03/10 06:43:57;;;;;;;17.85;10.60;;;0.30;99.90;;;;;;5065293;28;20029;-82
2022/03/10 06:46:24;;;;;;;21.23;11.52;;;0.40;99.90;;;;;;5076516;28;20666;-83
2022/03/10 06:48:49;;;;;;;17.30;10.27;;;0.80;99.90;;;;;;5078205;28;20047;-82
2022/03/10 06:51:15;;;;;;;19.90;11.20;;;0.50;99.90;;;;;;5066794;28;20040;-82
2022/03/10 06:53:41;;;;;;;21.02;11.80;;;0.60;99.90;;;;;;5077075;28;20032;-83
2022/03/10 06:56:07;;;;;;;21.65;11.25;;;1.00;99.90;;;;;;5064453;28;20036;-82
2022/03/10 06:58:32;;;;;;;18.48;10.60;;;0.70;99.90;;;;;;5060313;28;20036;-82
2022/03/10 07:00:59;;;;;;;20.70;11.77;;;0.30;99.90;;;;;;5059375;28;20066;-82
2022/03/10 07:03:24;;;;;;;18.88;10.45;;;2.50;99.90;;;;;;5078186;28;20041;-82
2022/03/10 07:05:50;;;;;;;20.23;11.70;;;1.00;99.90;;;;;;5061293;28;20039;-82
2022/03/10 07:08:16;;;;;;;19.58;10.70;;;;;;;;;;5064941;28;20043;-82
2022/03/10 07:10:42;;;;;;;19.58;10.88;;;1.20;99.90;;;;;;5081995;28;20119;-84
2022/03/10 07:13:08;;;;;;;22.85;11.35;;;1.30;99.90;;;;;;5062506;28;20130;-83
2022/03/10 07:15:34;;;;;;;22.17;12.25;;;1.40;99.90;;;;;;5061944;28;20181;-82
2022/03/10 07:18:00;;;;;;;19.77;11.52;;;1.60;99.90;;;;;;5082729;28;20115;-83
2022/03/10 07:20:26;;;;;;;23.63;11.40;;;1.70;99.90;;;;;;5062803;28;20036;-83
2022/03/10 07:22:51;;;;;;;19.00;10.68;;;1.70;99.90;;;;;;5052346;28;20656;-81
2022/03/10 07:25:17;;;;;;;17.23;10.48;;;3.40;99.90;;;;;;5053036;28;20400;-82
2022/03/10 07:27:43;;;;;;;20.08;11.07;;;4.30;99.90;;;;;;5058626;28;20039;-82
2022/03/10 07:30:09;;;;;;;18.77;10.95;;;2.10;99.90;;;;;;5064037;28;20056;-82
2022/03/10 07:32:35;;;;;;;18.65;11.32;;;0.10;99.90;;;;;;5080519;28;20051;-83
2022/03/10 07:35:01;;;;;;;18.80;10.52;;;2.40;99.90;;;;;;5068218;28;20044;-83
2022/03/10 07:37:27;;;;;;;20.00;10.65;;;2.50;99.90;;;;;;5070400;28;20385;-83
2022/03/10 07:39:54;;;;;;;19.67;10.65;;;2.80;99.90;;;;;;5069862;28;20043;-82
2022/03/10 07:42:19;;;;;;;19.48;10.77;;;2.80;99.90;;;;;;5060848;28;20040;-83
2022/03/10 07:44:45;;;;;;;18.50;10.45;;;4.80;99.90;;;;;;5080428;28;20385;-83
2022/03/10 07:47:11;;;;;;;17.38;10.38;;;3.90;99.90;;;;;;5066837;28;20120;-82
2022/03/10 07:49:37;;;;;;;20.30;10.45;;;3.10;99.90;;;;;;5080086;28;20051;-81
2022/03/10 07:52:04;;;;;;;20.13;10.68;;;3.20;99.90;;;;;;5077100;28;20036;-82
2022/03/10 07:54:30;;;;;;;18.45;10.70;;;3.40;99.90;;;;;;5079802;28;20548;-82
2022/03/10 07:56:56;;;;;;;20.20;11.13;;;4.40;99.90;;;;;;5057306;28;20036;-81
2022/03/10 07:59:22;;;;;;;19.73;11.32;;;3.60;99.90;;;;;;5063942;28;20039;-82
2022/03/10 08:01:47;;;;;;;19.73;10.75;;;4.90;99.90;;;;;;5076654;28;20044;-82
2022/03/10 08:04:13;;;;;;;17.67;10.02;;;3.80;99.90;;;;;;5077361;28;20123;-82
2022/03/10 08:06:39;;;;;;;19.60;10.73;;;4.00;99.90;;;;;;5062138;28;20055;-82
2022/03/10 08:09:06;;;;;;;20.70;11.32;;;4.10;99.90;;;;;;5065803;28;20397;-83
2022/03/10 08:11:32;;;;;;;18.40;11.10;;;4.70;99.90;;;;;;5064087;28;20602;-83
2022/03/10 08:13:58;;;;;;;20.10;11.00;;;4.30;99.90;;;;;;5077523;28;20232;-83
2022/03/10 08:16:24;;;;;;;20.70;11.65;;;5.40;99.90;;;;;;5061537;28;20069;-82
2022/03/10 08:18:50;;;;;;;19.17;10.85;;;4.60;99.90;;;;;;5060139;28;20033;-83
2022/03/10 08:21:16;;;;;;;18.40;10.50;;;5.30;99.90;;;;;;5047881;28;20110;-82
2022/03/10 08:23:42;;;;;;;19.45;10.13;;;5.10;99.90;;;;;;5079139;28;20063;-82
2022/03/10 08:26:08;;;;;;;18.88;10.88;;;5.20;99.90;;;;;;5080977;28;20413;-82
2022/03/10 08:28:35;;;;;;;18.67;9.60;;;5.80;99.90;;;;;;5044924;28;20040;-83
2022/03/10 08:31:04;;;;;;;21.35;9.82;;;5.30;99.90;;;;;;5063480;28;20063;-83
2022/03/10 08:33:33;;;;;;;19.55;10.48;;;5.50;99.90;;;;;;5062703;28;20044;-83
2022/03/10 08:35:59;;;;;;;17.67;10.02;;;5.60;99.90;;;;;;5077869;28;20047;-82
2022/03/10 08:38:25;;;;;;;18.95;10.20;;;5.70;99.90;;;;;;5097581;28;20044;-82
2022/03/10 08:40:52;;;;;;;17.10;9.95;;;6.70;99.90;;;;;;5082132;28;20032;-82
2022/03/10 08:43:18;;;;;;;17.98;10.05;;;6.00;99.90;;;;;;5064021;28;20412;-82
2022/03/10 08:45:44;;;;;;;17.48;10.05;;;6.20;99.90;;;;;;5063461;28;20074;-84
2022/03/10 08:48:10;;;;;;;22.27;10.07;;;6.30;99.90;;;;;;5057181;28;20036;-83
2022/03/10 08:50:36;;;;;;;18.70;10.18;;;6.40;99.90;;;;;;5063904;28;20043;-83
2022/03/10 08:53:02;;;;;;;16.85;9.70;;;6.60;99.90;;;;;;5059558;28;20036;-82
2022/03/10 08:55:27;;;;;;;18.63;9.82;;;6.70;99.90;;;;;;5058507;28;20067;-82
2022/03/10 08:57:55;;;;;;;18.42;9.77;;;6.80;99.90;;;;;;5062721;28;20035;-82
2022/03/10 09:00:21;;;;;;;18.48;9.75;;;7.00;99.90;;;;;;5061597;28;20039;-83
2022/03/10 09:02:47;;;;;;;18.27;10.40;;;7.60;99.90;;;;;;5076786;28;20031;-82
2022/03/10 09:05:13;;;;;;;17.48;10.23;;;7.10;99.90;;;;;;5046117;28;20044;-83
2022/03/10 09:07:40;;;;;;;16.42;9.68;;;7.20;99.90;;;;;;5076925;28;20039;-82
2022/03/10 09:10:07;;;;;;;16.38;9.13;;;7.40;99.90;;;;;;5076927;28;20028;-82
2022/03/10 09:12:33;;;;;;;16.73;9.02;;;7.50;99.90;;;;;;5056806;28;20093;-82
2022/03/10 09:14:59;;;;;;;17.67;9.55;;;;;;;;;;5065549;28;20131;-82
2022/03/10 09:17:25;;;;;;;17.50;9.80;;;7.70;99.90;;;;;;5064604;28;20040;-82
2022/03/10 09:19:51;;;;;;;17.10;9.90;;;7.90;99.90;;;;;;5078073;28;20051;-82
2022/03/10 09:22:20;;;;;;;18.27;9.57;;;8.00;99.90;;;;;;5058893;28;20035;-81
2022/03/10 09:24:46;;;;;;;16.25;9.30;;;8.10;99.90;;;;;;5077524;28;20193;-82
2022/03/10 09:27:12;;;;;;;18.50;9.07;;;8.20;99.90;;;;;;5076871;28;20370;-82
2022/03/10 09:29:38;;;;;;;18.50;9.10;;;8.60;99.90;;;;;;5075588;28;20074;-83
2022/03/10 09:32:04;;;;;;;15.10;9.18;;;8.40;99.90;;;;;;5097638;28;20072;-83
2022/03/10 09:34:30;;;;;;;16.23;9.82;;;8.50;99.90;;;;;;5066432;28;20490;-82
2022/03/10 09:36:56;;;;;;;17.25;9.68;;;8.70;99.90;;;;;;5067170;28;20119;-82
2022/03/10 09:39:21;;;;;;;15.52;9.27;;;9.00;99.90;;;;;;5059660;28;20036;-82
2022/03/10 09:41:47;;;;;;;18.48;10.40;;;9.80;99.90;;;;;;5069570;28;20044;-83
2022/03/10 09:44:17;;;;;;;16.60;9.93;;;8.90;99.90;;;;;;5068294;28;20044;-83
2022/03/10 09:46:44;;;;;;;17.15;9.57;;;9.00;99.90;;;;;;5081797;28;20036;-82
2022/03/10 09:49:10;;;;;;;17.90;9.70;;;9.10;99.90;;;;;;5082557;28;20398;-83
2022/03/10 09:51:37;;;;;;;15.35;9.15;;;10.40;99.90;;;;;;5064991;28;20114;-83
2022/03/10 09:54:03;;;;;;;18.38;9.80;;;9.30;99.90;;;;;;5071097;28;20131;-83
2022/03/10 09:56:30;;;;;;;17.35;10.00;;;9.40;99.90;;;;;;5067462;28;20549;-82
2022/03/10 09:58:55;;;;;;;17.10;9.38;;;9.50;99.90;;;;;;5083634;28;20048;-83
2022/03/10 10:01:21;;;;;;;18.38;10.05;;;9.60;99.90;;;;;;5085000;28;20040;-82
2022/03/10 10:03:47;;;;;;;16.83;9.88;;;9.70;99.90;;;;;;5082132;28;20454;-83
2022/03/10 10:06:13;;;;;;;16.25;9.68;;;9.80;99.90;;;;;;5080031;28;20036;-84
2022/03/10 10:08:41;;;;;;;17.13;9.38;;;9.90;99.90;;;;;;5066070;28;20036;-82
2022/03/10 10:11:07;;;;;;;17.90;10.27;;;10.00;99.90;;;;;;5100020;28;20055;-83
2022/03/10 10:13:39;;;;;;;17.15;9.77;;;11.70;99.90;;;;;;5068405;28;20036;-83
2022/03/10 10:16:11;;;;;;;18.27;9.82;;;10.20;99.90;;;;;;5098602;28;20048;-82
2022/03/10 10:18:39;;;;;;;16.30;9.45;;;10.30;99.90;;;;;;5079926;28;20043;-83
2022/03/10 10:21:06;;;;;;;16.60;9.27;;;10.40;99.90;;;;;;5049147;28;20487;-83
2022/03/10 10:23:34;;;;;;;17.98;8.77;;;10.40;99.90;;;;;;5059402;28;20109;-83
2022/03/10 10:26:03;;;;;;;15.93;8.93;;;10.50;99.90;;;;;;5080327;28;20039;-82
2022/03/10 10:28:34;;;;;;;15.70;8.70;;;10.60;99.90;;;;;;5087250;28;20164;-84
2022/03/10 10:31:10;;;;;;;16.85;9.45;;;10.70;99.90;;;;;;5089341;28;20417;-84
2022/03/10 10:33:38;;;;;;;22.90;10.23;;;10.90;99.90;;;;;;5084193;28;20174;-84
2022/03/10 10:36:11;;;;;;;15.95;9.93;;;10.80;99.90;;;;;;5087605;28;20036;-84
2022/03/10 10:38:37;;;;;;;16.80;9.68;;;10.90;99.90;;;;;;5063978;28;20040;-83
2022/03/10 10:41:23;;;;;;;17.02;9.25;;;11.80;99.90;;;;;;5080685;28;20033;-83
2022/03/10 10:43:57;;;;;;;16.50;9.15;;;11.10;99.30;;;;;;5081993;28;20090;-84
2022/03/10 10:46:45;;;;;;;16.58;9.77;;;11.20;99.90;;;;;;5067392;28;20366;-83
2022/03/10 10:49:22;;;;;;;16.05;9.85;;;11.20;98.00;;;;;;5082976;28;20100;-83
2022/03/10 10:51:53;;;;;;;17.73;9.60;;;11.30;97.70;;;;;;5065741;28;20043;-83
2022/03/10 10:54:23;;;;;;;17.60;9.40;;;11.40;99.90;;;;;;5083112;28;20048;-83
2022/03/10 10:57:01;;;;;;;19.13;10.85;;;11.40;99.90;;;;;;5062334;28;20093;-82
2022/03/10 10:59:37;;;;;;;15.63;9.30;;;11.50;99.90;;;;;;5083386;28;20055;-83
2022/03/10 11:02:17;;;;;;;16.70;9.25;;;11.60;99.90;;;;;;5082132;28;20044;-83
2022/03/10 11:04:46;;;;;;;15.95;9.45;;;11.70;98.90;;;;;;5066566;28;20524;-83
2022/03/10 11:07:13;;;;;;;17.75;9.60;;;11.80;97.90;;;;;;5080163;28;20040;-83
2022/03/10 11:09:41;;;;;;;16.20;9.40;;;11.90;97.70;;;;;;5081050;28;20113;-83
2022/03/10 11:12:09;;;;;;;17.17;10.23;;;11.90;95.20;;;;;;5077592;28;20121;-84
2022/03/10 11:14:35;;;;;;;15.10;9.10;;;12.00;95.70;;;;;;5082351;28;20555;-83
2022/03/10 11:17:01;;;;;;;17.48;9.73;;;12.10;95.60;;;;;;5059919;28;20040;-83
2022/03/10 11:19:32;;;;;;;15.63;9.88;;;12.20;95.70;;;;;;5064743;28;20161;-84
2022/03/10 11:22:19;;;;;;;17.05;9.70;;;12.20;94.60;;;;;;5077016;28;20043;-84
2022/03/10 11:25:12;;;;;;;17.75;9.55;;;12.30;90.60;;;;;;5059994;28;20058;-83
2022/03/10 11:27:55;;;;;;;16.50;9.77;;;12.40;90.50;;;;;;5090290;28;20040;-83
2022/03/10 11:30:28;;;;;;;17.80;10.15;;;12.50;89.90;;;;;;5074853;28;20137;-84
2022/03/10 11:33:13;;;;;;;16.60;9.85;;;12.60;91.20;;;;;;5065249;28;20040;-84
2022/03/10 11:35:44;;;;;;;16.60;9.57;;;12.70;81.20;;;;;;5061035;28;20033;-84
2022/03/10 11:38:11;;;;;;;16.60;10.35;;;12.70;78.30;;;;;;5064943;28;20075;-83
2022/03/10 11:40:49;;;;;;;19.52;10.20;;;12.80;78.90;;;;;;5081836;28;20034;-84
2022/03/10 11:43:28;;;;;;;16.83;10.48;;;12.90;77.00;;;;;;5082553;28;20047;-83
2022/03/10 11:46:17;;;;;;;17.35;10.25;;;13.00;74.30;;;;;;5062900;28;20102;-84
2022/03/10 11:48:43;;;;;;;16.95;9.90;;;13.00;69.30;;;;;;5081127;28;20032;-83
2022/03/10 11:51:11;;;;;;;16.90;10.05;;;13.10;72.80;;;;;;5061886;28;20043;-83
2022/03/10 11:53:58;;;;;;;17.17;10.48;;;13.10;71.10;;;;;;5065197;28;20393;-84
2022/03/10 11:56:35;;;;;;;17.05;10.73;;;13.20;68.10;;;;;;5078555;28;20047;-83
2022/03/10 11:59:23;;;;;;;18.40;11.45;;;13.30;66.60;;;;;;5064552;28;20067;-84
2022/03/10 12:01:49;;;;;;;16.60;10.30;;;13.40;65.20;;;;;;5078786;28;20056;-85
2022/03/10 12:04:17;;;;;;;17.40;10.50;;;13.40;65.50;;;;;;5073473;28;20044;-84
2022/03/10 12:06:58;;;;;;;20.42;10.48;;;13.50;64.20;;;;;;5082378;28;20042;-83
2022/03/10 12:09:33;;;;;;;17.13;10.30;;;13.50;62.20;;;;;;5081231;28;20043;-84
2022/03/10 12:12:18;;;;;;;18.30;10.25;;;13.60;61.80;;;;;;5077378;28;20090;-84
2022/03/10 12:14:45;;;;;;;20.75;10.70;;;13.60;61.60;;;;;;5077968;28;20085;-83
2022/03/10 12:17:42;;;;;;;19.17;10.63;;;13.60;62.10;;;;;;5075550;28;20075;-83
2022/03/10 12:20:24;;;;;;;17.83;10.55;;;13.60;59.50;;;;;;5097320;28;20674;-84
2022/03/10 12:23:10;;;;;;;19.40;11.23;;;13.70;61.20;;;;;;5060709;28;20040;-83
2022/03/10 12:25:43;;;;;;;17.30;10.25;;;13.70;60.30;;;;;;5096888;28;20052;-83
2022/03/10 12:28:30;;;;;;;17.60;9.90;;;13.70;60.40;;;;;;5078486;28;20155;-83
2022/03/10 12:31:05;;;;;;;16.67;10.40;;;13.80;60.20;;;;;;5082089;28;20584;-83
2022/03/10 12:33:32;;;;;;;16.95;10.18;;;13.80;59.70;;;;;;5077727;28;20133;-83
2022/03/10 12:35:59;;;;;;;17.90;10.63;;;13.90;59.30;;;;;;5081782;28;20043;-83
2022/03/10 12:38:46;;;;;;;18.05;10.95;;;13.90;59.90;;;;;;5079469;28;20083;-84
2022/03/10 12:41:14;;;;;;;18.50;11.02;;;14.00;58.00;;;;;;5080738;28;20044;-83
2022/03/10 12:43:41;;;;;;;17.95;10.38;;;14.00;59.70;;;;;;5077788;28;20047;-83
2022/03/10 12:46:07;;;;;;;19.65;10.43;;;14.10;59.40;;;;;;5077454;28;20035;-84
2022/03/10 12:48:57;;;;;;;18.88;10.48;;;14.10;58.90;;;;;;5080999;28;20036;-83